METAR Data
IDs: Format: Raw Decoded Include TAF

Data at: 1331 UTC 14 Dec 2019

PAHX 141256Z AUTO 03009KT 10SM BKN070 OVC100 M08/M11 A2954 RMK AO2 SLP006 T10831106 PWINO FZRANO
PAHX 141156Z AUTO 04010KT 10SM OVC075 M08/M10 A2954 RMK AO2 SLP006 T10831100 11083 21100 58001 PWINO FZRANO
PAHX 141056Z AUTO 03011KT 10SM OVC060 M08/M11 A2954 RMK AO2 SLP006 T10831106 PWINO FZRANO
PAHX 140956Z AUTO 03013KT 10SM OVC065 M08/M11 A2955 RMK AO2 SLP007 T10831106 PWINO FZRANO
PAHX 140756Z AUTO 03015KT 10SM OVC055 M09/M12 A2954 RMK AO2 SLP005 T10941117 410781139 PWINO FZRANO
PAHX 140656Z AUTO 03010KT 10SM BKN044 OVC055 M09/M12 A2954 RMK AO2 SLP004 T10941117 PWINO FZRANO
PAHX 140556Z AUTO 02011KT 10SM OVC037 M10/M12 A2953 RMK AO2 SLP002 T11001122 11100 21117 53004 PWINO FZRANO
PAHX 140536Z AUTO 02009KT 10SM OVC031 M10/M12 A2954 RMK AO2 PWINO FZRANO
PAHX 140524Z AUTO 02009KT 10SM BKN029 BKN110 M11/M12 A2954 RMK AO2 PWINO FZRANO
PAHX 140256Z AUTO 03010KT 10SM SCT050 BKN060 OVC100 M11/M12 A2952 RMK AO2 SLP999 T11061122 53010 PWINO FZRANO
PAHX 140156Z AUTO 02008KT 10SM BKN070 BKN100 M11/M12 A2951 RMK AO2 SLP995 T11061122 PWINO FZRANO
PAHX 140056Z AUTO 03007KT 10SM FEW033 BKN065 OVC090 M12/M13 A2950 RMK AO2 SLP991 T11171128 PWINO FZRANO
PAHX 132356Z AUTO 03008KT 10SM SCT035 SCT080 M12/M13 A2949 RMK AO2 SLP988 T11171133 11117 21139 51021 PWINO FZRANO
PAHX 132256Z AUTO 03007KT 10SM SCT085 M12/M14 A2947 RMK AO2 SLP982 T11221139 PWINO FZRANO
PAHX 132156Z AUTO 04006KT 10SM FEW065 M13/M14 A2945 RMK AO2 SLP975 T11281139 PWINO FZRANO
PAHX 132056Z AUTO 03003KT 10SM FEW085 M14/M15 A2943 RMK AO2 SLP967 T11391150 52023 PWINO FZRANO
PAHX 131956Z AUTO 03004KT 10SM CLR M14/M15 A2941 RMK AO2 SLP961 T11391150 PWINO FZRANO
PAHX 131856Z AUTO 04003KT 10SM CLR M13/M14 A2938 RMK AO2 SLP950 T11331144 PWINO FZRANO
PAHX 131556Z AUTO 04005KT 10SM CLR M11/M13 A2932 RMK AO2 SLP932 T11061128 PWINO FZRANO
PAHX 131456Z AUTO 07004KT 10SM CLR M10/M12 A2932 RMK AO2 SLP930 T11001122 51004 PWINO FZRANO
PAHX 131356Z AUTO 04007KT 10SM CLR M09/M12 A2932 RMK AO2 SLP929 T10941122 PWINO FZRANO
PAHX 131256Z AUTO 04006KT 10SM CLR M09/M12 A2932 RMK AO2 SLP929 T10891117 PWINO FZRANO
PAHX 131156Z AUTO 04009KT 10SM OVC110 M08/M11 A2931 RMK AO2 SLP925 T10831111 11078 21094 55000 PWINO FZRANO
PAHX 131056Z AUTO 04009KT 10SM CLR M08/M11 A2930 RMK AO2 SLP924 T10831106 PWINO FZRANO
PAHX 130956Z AUTO 04013KT 10SM BKN100 M08/M11 A2930 RMK AO2 SLP924 T10781106 PWINO FZRANO
PAHX 130756Z AUTO 03009KT 10SM FEW110 M08/M10 A2930 RMK AO2 SLP924 T10831100 410671094 PWINO FZRANO
PAHX 130656Z AUTO 02009KT 10SM CLR M09/M11 A2930 RMK AO2 SLP925 T10941106 PWINO FZRANO
PAHX 130556Z AUTO 03009KT 10SM CLR M09/M10 A2931 RMK AO2 SLP928 T10891100 11072 21089 58005 PWINO FZRANO